sensor_id;sensor_type;location;lat;lon;timestamp;pressure;altitude;pressure_sealevel;temperature;humidity
79129;BME280;68529;43.286;23.360;2023-09-30T00:00:42;99611.38;;;19.21;49.34
79129;BME280;68529;43.286;23.360;2023-09-30T00:03:07;99615.66;;;19.23;48.90
79129;BME280;68529;43.286;23.360;2023-09-30T00:05:32;99603.41;;;19.21;49.18
79129;BME280;68529;43.286;23.360;2023-09-30T00:07:58;99612.22;;;19.21;49.60
79129;BME280;68529;43.286;23.360;2023-09-30T00:10:23;99619.44;;;19.19;49.49
79129;BME280;68529;43.286;23.360;2023-09-30T00:12:49;99616.22;;;19.14;49.48
79129;BME280;68529;43.286;23.360;2023-09-30T00:15:14;99612.03;;;19.10;49.59
79129;BME280;68529;43.286;23.360;2023-09-30T00:17:39;99609.28;;;19.11;49.80
79129;BME280;68529;43.286;23.360;2023-09-30T00:20:05;99603.97;;;19.11;49.67
79129;BME280;68529;43.286;23.360;2023-09-30T00:22:31;99603.50;;;19.05;49.88
79129;BME280;68529;43.286;23.360;2023-09-30T00:24:56;99601.13;;;19.00;49.99
79129;BME280;68529;43.286;23.360;2023-09-30T00:27:22;99602.75;;;19.03;49.86
79129;BME280;68529;43.286;23.360;2023-09-30T00:29:47;99606.47;;;19.00;50.03
79129;BME280;68529;43.286;23.360;2023-09-30T00:32:12;99605.09;;;19.07;50.03
79129;BME280;68529;43.286;23.360;2023-09-30T00:34:38;99598.91;;;19.07;49.84
79129;BME280;68529;43.286;23.360;2023-09-30T00:37:03;99597.31;;;19.04;50.11
79129;BME280;68529;43.286;23.360;2023-09-30T00:39:29;99596.44;;;19.04;50.37
79129;BME280;68529;43.286;23.360;2023-09-30T00:41:58;99600.47;;;18.97;50.37
79129;BME280;68529;43.286;23.360;2023-09-30T00:44:27;99599.72;;;18.95;50.58
79129;BME280;68529;43.286;23.360;2023-09-30T00:46:54;99599.72;;;18.95;50.47
79129;BME280;68529;43.286;23.360;2023-09-30T00:49:21;99602.63;;;18.90;50.58
79129;BME280;68529;43.286;23.360;2023-09-30T00:51:48;99600.38;;;18.84;50.69
79129;BME280;68529;43.286;23.360;2023-09-30T00:54:14;99607.31;;;18.73;50.92
79129;BME280;68529;43.286;23.360;2023-09-30T00:56:44;99603.81;;;18.72;50.90
79129;BME280;68529;43.286;23.360;2023-09-30T00:59:14;99600.47;;;18.69;51.19
79129;BME280;68529;43.286;23.360;2023-09-30T01:01:41;99604.84;;;18.70;51.14
79129;BME280;68529;43.286;23.360;2023-09-30T01:04:07;99602.38;;;18.67;50.93
79129;BME280;68529;43.286;23.360;2023-09-30T01:06:32;99601.44;;;18.68;51.18
79129;BME280;68529;43.286;23.360;2023-09-30T01:08:57;99603.25;;;18.67;51.26
79129;BME280;68529;43.286;23.360;2023-09-30T01:11:24;99595.50;;;18.63;51.30
79129;BME280;68529;43.286;23.360;2023-09-30T01:13:49;99599.16;;;18.62;51.25
79129;BME280;68529;43.286;23.360;2023-09-30T01:16:14;99593.03;;;18.59;51.25
79129;BME280;68529;43.286;23.360;2023-09-30T01:18:40;99591.25;;;18.60;51.33
79129;BME280;68529;43.286;23.360;2023-09-30T01:21:08;99598.47;;;18.58;51.49
79129;BME280;68529;43.286;23.360;2023-09-30T01:23:34;99603.13;;;18.54;51.30
79129;BME280;68529;43.286;23.360;2023-09-30T01:26:11;99598.25;;;18.47;51.51
79129;BME280;68529;43.286;23.360;2023-09-30T01:28:40;99601.44;;;18.38;51.92
79129;BME280;68529;43.286;23.360;2023-09-30T01:31:06;99595.28;;;18.37;51.80
79129;BME280;68529;43.286;23.360;2023-09-30T01:33:32;99607.41;;;18.27;52.13
79129;BME280;68529;43.286;23.360;2023-09-30T01:35:58;99608.53;;;18.23;52.28
79129;BME280;68529;43.286;23.360;2023-09-30T01:38:25;99604.00;;;18.25;52.23
79129;BME280;68529;43.286;23.360;2023-09-30T01:40:50;99612.91;;;18.24;52.17
79129;BME280;68529;43.286;23.360;2023-09-30T01:43:16;99603.69;;;18.16;52.51
79129;BME280;68529;43.286;23.360;2023-09-30T01:45:42;99607.28;;;18.15;52.58
79129;BME280;68529;43.286;23.360;2023-09-30T01:48:08;99616.13;;;18.15;52.68
79129;BME280;68529;43.286;23.360;2023-09-30T01:50:38;99608.59;;;18.08;53.06
79129;BME280;68529;43.286;23.360;2023-09-30T01:53:04;99602.34;;;18.09;52.90
79129;BME280;68529;43.286;23.360;2023-09-30T01:55:32;99606.06;;;18.06;53.06
79129;BME280;68529;43.286;23.360;2023-09-30T01:57:58;99609.53;;;18.07;53.07
79129;BME280;68529;43.286;23.360;2023-09-30T02:00:23;99603.56;;;18.03;53.02
79129;BME280;68529;43.286;23.360;2023-09-30T02:02:48;99600.06;;;18.02;53.17
79129;BME280;68529;43.286;23.360;2023-09-30T02:05:14;99602.22;;;17.96;53.14
79129;BME280;68529;43.286;23.360;2023-09-30T02:07:39;99600.41;;;17.96;52.95
79129;BME280;68529;43.286;23.360;2023-09-30T02:10:05;99603.25;;;17.93;53.01
79129;BME280;68529;43.286;23.360;2023-09-30T02:12:30;99597.34;;;17.88;53.04
79129;BME280;68529;43.286;23.360;2023-09-30T02:14:58;99597.16;;;17.91;53.25
79129;BME280;68529;43.286;23.360;2023-09-30T02:17:23;99597.84;;;17.95;52.98
79129;BME280;68529;43.286;23.360;2023-09-30T02:19:49;99595.44;;;17.90;52.92
79129;BME280;68529;43.286;23.360;2023-09-30T02:22:15;99601.63;;;17.91;52.76
79129;BME280;68529;43.286;23.360;2023-09-30T02:24:40;99602.31;;;17.94;52.95
79129;BME280;68529;43.286;23.360;2023-09-30T02:27:06;99607.81;;;17.91;52.80
79129;BME280;68529;43.286;23.360;2023-09-30T02:29:31;99605.16;;;17.91;53.00
79129;BME280;68529;43.286;23.360;2023-09-30T02:31:56;99601.63;;;17.91;52.86
79129;BME280;68529;43.286;23.360;2023-09-30T02:34:22;99601.63;;;17.91;53.12
79129;BME280;68529;43.286;23.360;2023-09-30T02:36:47;99608.84;;;17.89;53.02
79129;BME280;68529;43.286;23.360;2023-09-30T02:39:13;99607.03;;;17.89;52.86
79129;BME280;68529;43.286;23.360;2023-09-30T02:41:44;99597.59;;;17.84;52.74
79129;BME280;68529;43.286;23.360;2023-09-30T02:44:09;99600.34;;;17.82;52.88
79129;BME280;68529;43.286;23.360;2023-09-30T02:46:35;99598.16;;;17.75;52.92
79129;BME280;68529;43.286;23.360;2023-09-30T02:49:03;99607.06;;;17.74;53.22
79129;BME280;68529;43.286;23.360;2023-09-30T02:51:29;99602.78;;;17.71;53.33
79129;BME280;68529;43.286;23.360;2023-09-30T02:53:55;99601.84;;;17.72;53.12
79129;BME280;68529;43.286;23.360;2023-09-30T02:56:21;99599.25;;;17.71;53.14
79129;BME280;68529;43.286;23.360;2023-09-30T02:58:50;99600.03;;;17.73;53.08
79129;BME280;68529;43.286;23.360;2023-09-30T03:01:17;99597.75;;;17.67;53.09
79129;BME280;68529;43.286;23.360;2023-09-30T03:03:43;99600.06;;;17.57;53.57
79129;BME280;68529;43.286;23.360;2023-09-30T03:06:11;99606.47;;;17.53;53.68
79129;BME280;68529;43.286;23.360;2023-09-30T03:08:37;99604.22;;;17.45;53.46
79129;BME280;68529;43.286;23.360;2023-09-30T03:11:03;99599.19;;;17.41;53.45
79129;BME280;68529;43.286;23.360;2023-09-30T03:13:30;99598.78;;;17.33;53.88
79129;BME280;68529;43.286;23.360;2023-09-30T03:15:55;99597.56;;;17.38;53.83
79129;BME280;68529;43.286;23.360;2023-09-30T03:18:22;99594.31;;;17.33;53.85
79129;BME280;68529;43.286;23.360;2023-09-30T03:21:01;99597.22;;;17.29;54.21
79129;BME280;68529;43.286;23.360;2023-09-30T03:23:29;99600.84;;;17.28;54.01
79129;BME280;68529;43.286;23.360;2023-09-30T03:25:59;99593.44;;;17.17;54.32
79129;BME280;68529;43.286;23.360;2023-09-30T03:28:28;99599.38;;;17.22;54.11
79129;BME280;68529;43.286;23.360;2023-09-30T03:30:54;99593.59;;;17.14;54.25
79129;BME280;68529;43.286;23.360;2023-09-30T03:33:19;99587.47;;;17.14;54.39
79129;BME280;68529;43.286;23.360;2023-09-30T03:35:44;99588.50;;;17.11;54.40
79129;BME280;68529;43.286;23.360;2023-09-30T03:38:10;99594.22;;;17.04;54.50
79129;BME280;68529;43.286;23.360;2023-09-30T03:40:39;99593.19;;;16.91;54.63
79129;BME280;68529;43.286;23.360;2023-09-30T03:43:04;99599.41;;;16.89;54.78
79129;BME280;68529;43.286;23.360;2023-09-30T03:45:32;99596.75;;;16.89;55.01
79129;BME280;68529;43.286;23.360;2023-09-30T03:48:02;99597.72;;;16.88;54.89
79129;BME280;68529;43.286;23.360;2023-09-30T03:50:28;99600.75;;;16.81;55.00
79129;BME280;68529;43.286;23.360;2023-09-30T03:53:01;99600.31;;;16.73;55.25
79129;BME280;68529;43.286;23.360;2023-09-30T03:55:26;99603.13;;;16.70;55.21
79129;BME280;68529;43.286;23.360;2023-09-30T03:57:52;99609.63;;;16.64;55.38
79129;BME280;68529;43.286;23.360;2023-09-30T04:00:17;99617.84;;;16.60;55.38
79129;BME280;68529;43.286;23.360;2023-09-30T04:02:44;99612.69;;;16.57;55.76
79129;BME280;68529;43.286;23.360;2023-09-30T04:05:14;99617.13;;;16.56;55.75
79129;BME280;68529;43.286;23.360;2023-09-30T04:07:40;99623.22;;;16.58;55.63
79129;BME280;68529;43.286;23.360;2023-09-30T04:10:08;99614.25;;;16.61;55.51
79129;BME280;68529;43.286;23.360;2023-09-30T04:12:33;99618.38;;;16.66;55.49
79129;BME280;68529;43.286;23.360;2023-09-30T04:14:59;99621.09;;;16.65;55.30
79129;BME280;68529;43.286;23.360;2023-09-30T04:17:25;99621.97;;;16.65;55.32
79129;BME280;68529;43.286;23.360;2023-09-30T04:19:52;99624.88;;;16.61;55.46
79129;BME280;68529;43.286;23.360;2023-09-30T04:22:17;99627.69;;;16.58;55.55
79129;BME280;68529;43.286;23.360;2023-09-30T04:24:44;99620.56;;;16.58;55.69
79129;BME280;68529;43.286;23.360;2023-09-30T04:27:09;99629.31;;;16.60;55.64
79129;BME280;68529;43.286;23.360;2023-09-30T04:29:35;99627.69;;;16.58;55.69
79129;BME280;68529;43.286;23.360;2023-09-30T04:32:00;99624.44;;;16.51;55.80
79129;BME280;68529;43.286;23.360;2023-09-30T04:34:26;99626.50;;;16.46;56.03
79129;BME280;68529;43.286;23.360;2023-09-30T04:36:53;99629.19;;;16.45;56.12
79129;BME280;68529;43.286;23.360;2023-09-30T04:39:34;99630.63;;;16.52;56.02
79129;BME280;68529;43.286;23.360;2023-09-30T04:42:00;99637.34;;;16.59;55.98
79129;BME280;68529;43.286;23.360;2023-09-30T04:44:26;99646.91;;;16.61;55.70
79129;BME280;68529;43.286;23.360;2023-09-30T04:46:55;99641.56;;;16.63;55.75
79129;BME280;68529;43.286;23.360;2023-09-30T04:49:21;99640.44;;;16.67;55.53
79129;BME280;68529;43.286;23.360;2023-09-30T04:51:48;99647.63;;;16.65;55.57
79129;BME280;68529;43.286;23.360;2023-09-30T04:54:14;99644.50;;;16.74;55.10
79129;BME280;68529;43.286;23.360;2023-09-30T04:56:39;99655.66;;;16.80;55.28
79129;BME280;68529;43.286;23.360;2023-09-30T04:59:05;99649.38;;;16.81;55.28
79129;BME280;68529;43.286;23.360;2023-09-30T05:01:30;99650.56;;;16.76;55.19
79129;BME280;68529;43.286;23.360;2023-09-30T05:03:56;99645.25;;;16.76;55.53
79129;BME280;68529;43.286;23.360;2023-09-30T05:06:22;99650.66;;;16.74;55.63
79129;BME280;68529;43.286;23.360;2023-09-30T05:08:48;99648.94;;;16.73;55.67
79129;BME280;68529;43.286;23.360;2023-09-30T05:11:13;99658.22;;;16.65;55.64
79129;BME280;68529;43.286;23.360;2023-09-30T05:13:39;99649.19;;;16.69;55.80
79129;BME280;68529;43.286;23.360;2023-09-30T05:16:04;99662.50;;;16.67;55.83
79129;BME280;68529;43.286;23.360;2023-09-30T05:18:30;99658.84;;;16.70;55.98
79129;BME280;68529;43.286;23.360;2023-09-30T05:20:56;99659.81;;;16.69;55.98
79129;BME280;68529;43.286;23.360;2023-09-30T05:23:21;99666.31;;;16.79;55.68
79129;BME280;68529;43.286;23.360;2023-09-30T05:25:47;99661.91;;;16.95;55.56
79129;BME280;68529;43.286;23.360;2023-09-30T05:28:12;99663.97;;;17.06;55.42
79129;BME280;68529;43.286;23.360;2023-09-30T05:30:39;99665.28;;;17.14;55.02
79129;BME280;68529;43.286;23.360;2023-09-30T05:33:06;99664.88;;;17.22;55.00
79129;BME280;68529;43.286;23.360;2023-09-30T05:35:31;99667.81;;;17.33;55.11
79129;BME280;68529;43.286;23.360;2023-09-30T05:37:57;99673.75;;;17.54;54.63
79129;BME280;68529;43.286;23.360;2023-09-30T05:40:22;99669.66;;;17.64;54.41
79129;BME280;68529;43.286;23.360;2023-09-30T05:42:53;99674.94;;;17.79;54.18
79129;BME280;68529;43.286;23.360;2023-09-30T05:45:24;99675.00;;;17.93;53.91
79129;BME280;68529;43.286;23.360;2023-09-30T05:47:52;99687.50;;;18.07;53.96
79129;BME280;68529;43.286;23.360;2023-09-30T05:50:19;99687.56;;;18.21;53.61
79129;BME280;68529;43.286;23.360;2023-09-30T05:52:50;99689.91;;;18.41;53.68
79129;BME280;68529;43.286;23.360;2023-09-30T05:55:18;99694.06;;;18.61;53.74
79129;BME280;68529;43.286;23.360;2023-09-30T05:57:50;99692.13;;;18.79;52.94
79129;BME280;68529;43.286;23.360;2023-09-30T06:00:17;99691.66;;;18.86;52.74
79129;BME280;68529;43.286;23.360;2023-09-30T06:02:48;99701.25;;;19.03;52.45
79129;BME280;68529;43.286;23.360;2023-09-30T06:05:13;99701.34;;;19.15;52.33
79129;BME280;68529;43.286;23.360;2023-09-30T06:07:41;99698.47;;;19.33;51.79
79129;BME280;68529;43.286;23.360;2023-09-30T06:10:06;99700.22;;;19.48;51.60
79129;BME280;68529;43.286;23.360;2023-09-30T06:12:32;99701.06;;;19.62;51.06
79129;BME280;68529;43.286;23.360;2023-09-30T06:14:57;99705.91;;;19.56;51.18
79129;BME280;68529;43.286;23.360;2023-09-30T06:17:23;99702.09;;;19.60;51.41
79129;BME280;68529;43.286;23.360;2023-09-30T06:19:49;99695.09;;;19.86;51.45
79129;BME280;68529;43.286;23.360;2023-09-30T06:22:15;99699.38;;;20.15;51.31
79129;BME280;68529;43.286;23.360;2023-09-30T06:24:41;99697.56;;;20.42;50.39
79129;BME280;68529;43.286;23.360;2023-09-30T06:27:07;99695.25;;;20.63;50.30
79129;BME280;68529;43.286;23.360;2023-09-30T06:29:32;99707.44;;;20.79;49.67
79129;BME280;68529;43.286;23.360;2023-09-30T06:31:58;99704.22;;;21.00;48.97
79129;BME280;68529;43.286;23.360;2023-09-30T06:34:24;99702.56;;;21.11;48.97
79129;BME280;68529;43.286;23.360;2023-09-30T06:36:49;99703.09;;;21.29;49.16
79129;BME280;68529;43.286;23.360;2023-09-30T06:39:14;99701.66;;;21.48;49.06
79129;BME280;68529;43.286;23.360;2023-09-30T06:41:40;99709.84;;;21.71;48.78
79129;BME280;68529;43.286;23.360;2023-09-30T06:44:06;99707.03;;;21.85;48.46
79129;BME280;68529;43.286;23.360;2023-09-30T06:46:31;99712.13;;;22.00;47.75
79129;BME280;68529;43.286;23.360;2023-09-30T06:48:56;99713.78;;;22.14;47.62
79129;BME280;68529;43.286;23.360;2023-09-30T06:51:22;99711.50;;;22.21;47.27
79129;BME280;68529;43.286;23.360;2023-09-30T06:53:47;99703.94;;;22.38;47.36
79129;BME280;68529;43.286;23.360;2023-09-30T06:56:13;99706.66;;;22.49;46.19
79129;BME280;68529;43.286;23.360;2023-09-30T06:58:38;99707.84;;;22.69;46.13
79129;BME280;68529;43.286;23.360;2023-09-30T07:01:04;99705.53;;;22.87;43.96
79129;BME280;68529;43.286;23.360;2023-09-30T07:03:29;99712.50;;;23.00;45.03
79129;BME280;68529;43.286;23.360;2023-09-30T07:05:55;99710.13;;;23.19;45.15
79129;BME280;68529;43.286;23.360;2023-09-30T07:08:22;99709.31;;;23.41;43.02
79129;BME280;68529;43.286;23.360;2023-09-30T07:10:48;99710.66;;;23.47;41.18
79129;BME280;68529;43.286;23.360;2023-09-30T07:13:17;99706.13;;;23.47;42.82
79129;BME280;68529;43.286;23.360;2023-09-30T07:15:43;99709.91;;;23.67;42.49
79129;BME280;68529;43.286;23.360;2023-09-30T07:18:09;99712.78;;;23.86;41.90
79129;BME280;68529;43.286;23.360;2023-09-30T07:20:34;99706.31;;;23.89;40.04
79129;BME280;68529;43.286;23.360;2023-09-30T07:23:00;99714.25;;;23.79;40.09
79129;BME280;68529;43.286;23.360;2023-09-30T07:27:51;99715.97;;;23.80;39.99
79129;BME280;68529;43.286;23.360;2023-09-30T07:30:17;99712.06;;;23.95;40.67
79129;BME280;68529;43.286;23.360;2023-09-30T07:32:43;99718.75;;;24.12;40.50
79129;BME280;68529;43.286;23.360;2023-09-30T07:35:09;99711.22;;;24.26;40.90
79129;BME280;68529;43.286;23.360;2023-09-30T07:37:35;99716.53;;;24.17;39.64
79129;BME280;68529;43.286;23.360;2023-09-30T07:40:00;99710.31;;;24.16;39.57
79129;BME280;68529;43.286;23.360;2023-09-30T07:42:26;99713.97;;;23.93;39.75
79129;BME280;68529;43.286;23.360;2023-09-30T07:44:51;99715.41;;;24.19;40.39
79129;BME280;68529;43.286;23.360;2023-09-30T07:47:16;99713.88;;;24.38;39.86
79129;BME280;68529;43.286;23.360;2023-09-30T07:49:42;99721.88;;;24.49;38.71
79129;BME280;68529;43.286;23.360;2023-09-30T07:52:07;99723.84;;;24.47;39.03
79129;BME280;68529;43.286;23.360;2023-09-30T07:54:33;99716.09;;;24.64;38.66
79129;BME280;68529;43.286;23.360;2023-09-30T07:56:59;99712.47;;;24.75;38.91
79129;BME280;68529;43.286;23.360;2023-09-30T07:59:25;99714.91;;;24.99;39.87
79129;BME280;68529;43.286;23.360;2023-09-30T08:01:50;99710.22;;;25.12;38.75
79129;BME280;68529;43.286;23.360;2023-09-30T08:04:18;99716.63;;;25.20;38.01
79129;BME280;68529;43.286;23.360;2023-09-30T08:06:43;99717.78;;;25.27;38.20
79129;BME280;68529;43.286;23.360;2023-09-30T08:09:09;99704.84;;;25.42;37.42
79129;BME280;68529;43.286;23.360;2023-09-30T08:11:38;99704.31;;;25.48;37.92
79129;BME280;68529;43.286;23.360;2023-09-30T08:14:04;99707.47;;;25.32;37.83
79129;BME280;68529;43.286;23.360;2023-09-30T08:16:33;99703.97;;;25.41;36.29
79129;BME280;68529;43.286;23.360;2023-09-30T08:18:58;99704.94;;;25.61;34.83
79129;BME280;68529;43.286;23.360;2023-09-30T08:21:23;99710.19;;;25.63;35.94
79129;BME280;68529;43.286;23.360;2023-09-30T08:23:49;99703.41;;;25.78;34.33
79129;BME280;68529;43.286;23.360;2023-09-30T08:26:14;99696.63;;;25.74;33.50
79129;BME280;68529;43.286;23.360;2023-09-30T08:28:40;99697.06;;;25.79;33.78
79129;BME280;68529;43.286;23.360;2023-09-30T08:31:05;99704.72;;;25.83;34.73
79129;BME280;68529;43.286;23.360;2023-09-30T08:33:32;99688.50;;;26.14;33.33
79129;BME280;68529;43.286;23.360;2023-09-30T08:36:03;99696.16;;;26.28;34.42
79129;BME280;68529;43.286;23.360;2023-09-30T08:38:39;99704.38;;;26.55;34.03
79129;BME280;68529;43.286;23.360;2023-09-30T08:41:09;99703.53;;;26.83;34.45
79129;BME280;68529;43.286;23.360;2023-09-30T08:43:39;99708.03;;;27.11;33.98
79129;BME280;68529;43.286;23.360;2023-09-30T08:46:05;99695.47;;;27.30;33.56
79129;BME280;68529;43.286;23.360;2023-09-30T08:48:34;99701.97;;;27.46;33.75
79129;BME280;68529;43.286;23.360;2023-09-30T08:51:01;99704.03;;;27.62;33.67
79129;BME280;68529;43.286;23.360;2023-09-30T08:53:28;99694.47;;;27.67;33.12
79129;BME280;68529;43.286;23.360;2023-09-30T08:55:55;99701.09;;;27.83;34.06
79129;BME280;68529;43.286;23.360;2023-09-30T08:58:26;99697.03;;;27.96;32.20
79129;BME280;68529;43.286;23.360;2023-09-30T09:00:52;99700.00;;;28.03;31.13
79129;BME280;68529;43.286;23.360;2023-09-30T09:03:19;99701.19;;;27.91;30.02
79129;BME280;68529;43.286;23.360;2023-09-30T09:05:45;99693.38;;;27.88;31.62
79129;BME280;68529;43.286;23.360;2023-09-30T09:08:11;99690.56;;;28.07;31.90
79129;BME280;68529;43.286;23.360;2023-09-30T09:10:54;99682.88;;;28.29;32.51
79129;BME280;68529;43.286;23.360;2023-09-30T09:13:21;99693.69;;;28.47;31.84
79129;BME280;68529;43.286;23.360;2023-09-30T09:15:46;99688.56;;;28.62;31.59
79129;BME280;68529;43.286;23.360;2023-09-30T09:18:12;99695.16;;;28.77;31.45
79129;BME280;68529;43.286;23.360;2023-09-30T09:20:39;99691.03;;;28.91;31.83
79129;BME280;68529;43.286;23.360;2023-09-30T09:23:06;99688.59;;;29.05;31.12
79129;BME280;68529;43.286;23.360;2023-09-30T09:25:38;99690.16;;;29.16;30.95
79129;BME280;68529;43.286;23.360;2023-09-30T09:28:04;99683.44;;;29.20;31.18
79129;BME280;68529;43.286;23.360;2023-09-30T09:30:29;99691.97;;;29.25;30.82
79129;BME280;68529;43.286;23.360;2023-09-30T09:32:59;99682.97;;;29.24;31.44
79129;BME280;68529;43.286;23.360;2023-09-30T09:35:26;99683.91;;;29.41;30.99
79129;BME280;68529;43.286;23.360;2023-09-30T09:38:03;99679.59;;;29.56;30.45
79129;BME280;68529;43.286;23.360;2023-09-30T09:40:31;99682.38;;;29.72;30.80
79129;BME280;68529;43.286;23.360;2023-09-30T09:42:57;99671.09;;;29.85;29.86
79129;BME280;68529;43.286;23.360;2023-09-30T09:45:26;99670.94;;;29.94;29.44
79129;BME280;68529;43.286;23.360;2023-09-30T09:47:53;99670.63;;;29.97;28.95
79129;BME280;68529;43.286;23.360;2023-09-30T09:50:22;99668.25;;;29.94;29.58
79129;BME280;68529;43.286;23.360;2023-09-30T09:52:49;99663.19;;;30.16;29.76
79129;BME280;68529;43.286;23.360;2023-09-30T09:55:23;99663.91;;;30.26;28.76
79129;BME280;68529;43.286;23.360;2023-09-30T09:57:50;99656.09;;;30.23;28.53
79129;BME280;68529;43.286;23.360;2023-09-30T10:00:17;99663.72;;;30.27;28.66
79129;BME280;68529;43.286;23.360;2023-09-30T10:02:44;99667.84;;;30.39;28.46
79129;BME280;68529;43.286;23.360;2023-09-30T10:05:11;99658.97;;;30.29;28.05
79129;BME280;68529;43.286;23.360;2023-09-30T10:10:19;99659.38;;;30.42;27.25
79129;BME280;68529;43.286;23.360;2023-09-30T10:12:45;99657.50;;;30.51;27.55
79129;BME280;68529;43.286;23.360;2023-09-30T10:15:37;99651.72;;;30.70;27.93
79129;BME280;68529;43.286;23.360;2023-09-30T10:18:20;99653.41;;;30.71;27.69
79129;BME280;68529;43.286;23.360;2023-09-30T10:20:46;99657.31;;;30.77;27.56
79129;BME280;68529;43.286;23.360;2023-09-30T10:25:49;99645.97;;;30.65;27.10
79129;BME280;68529;43.286;23.360;2023-09-30T10:33:36;99646.78;;;31.06;26.90
79129;BME280;68529;43.286;23.360;2023-09-30T10:36:01;99636.78;;;31.06;26.57
79129;BME280;68529;43.286;23.360;2023-09-30T10:41:00;99628.91;;;31.28;25.55
79129;BME280;68529;43.286;23.360;2023-09-30T10:45:56;99625.44;;;31.42;25.34
79129;BME280;68529;43.286;23.360;2023-09-30T10:50:54;99619.81;;;31.59;24.97
79129;BME280;68529;43.286;23.360;2023-09-30T10:53:21;99613.06;;;31.47;24.52
79129;BME280;68529;43.286;23.360;2023-09-30T10:55:54;99604.91;;;31.47;26.09
79129;BME280;68529;43.286;23.360;2023-09-30T10:58:20;99602.38;;;31.46;25.58
79129;BME280;68529;43.286;23.360;2023-09-30T11:00:54;99602.09;;;31.25;26.27
79129;BME280;68529;43.286;23.360;2023-09-30T11:03:21;99602.66;;;31.12;25.81
79129;BME280;68529;43.286;23.360;2023-09-30T11:05:50;99601.81;;;31.11;25.97
79129;BME280;68529;43.286;23.360;2023-09-30T11:08:21;99595.41;;;30.96;26.63
79129;BME280;68529;43.286;23.360;2023-09-30T11:10:51;99587.94;;;30.82;25.67
79129;BME280;68529;43.286;23.360;2023-09-30T11:13:18;99590.00;;;30.80;24.96
79129;BME280;68529;43.286;23.360;2023-09-30T11:15:44;99590.69;;;30.74;24.86
79129;BME280;68529;43.286;23.360;2023-09-30T11:18:14;99588.69;;;30.52;24.95
79129;BME280;68529;43.286;23.360;2023-09-30T11:20:41;99585.13;;;30.43;25.99
79129;BME280;68529;43.286;23.360;2023-09-30T11:23:07;99574.44;;;30.34;24.88
79129;BME280;68529;43.286;23.360;2023-09-30T11:25:38;99573.41;;;30.27;25.61
79129;BME280;68529;43.286;23.360;2023-09-30T11:28:18;99566.63;;;29.90;25.91
79129;BME280;68529;43.286;23.360;2023-09-30T11:31:10;99562.91;;;30.16;26.27
79129;BME280;68529;43.286;23.360;2023-09-30T11:33:53;99564.47;;;30.34;26.18
79129;BME280;68529;43.286;23.360;2023-09-30T11:36:31;99566.00;;;30.37;25.45
79129;BME280;68529;43.286;23.360;2023-09-30T11:38:58;99557.00;;;30.36;25.68
79129;BME280;68529;43.286;23.360;2023-09-30T11:41:32;99558.53;;;30.07;24.93
79129;BME280;68529;43.286;23.360;2023-09-30T11:44:06;99555.13;;;29.96;24.34
79129;BME280;68529;43.286;23.360;2023-09-30T11:46:59;99556.50;;;29.84;24.91
79129;BME280;68529;43.286;23.360;2023-09-30T11:49:32;99543.94;;;29.91;25.16
79129;BME280;68529;43.286;23.360;2023-09-30T11:52:02;99547.34;;;30.01;24.73
79129;BME280;68529;43.286;23.360;2023-09-30T11:54:29;99541.25;;;30.08;25.08
79129;BME280;68529;43.286;23.360;2023-09-30T11:56:55;99541.56;;;30.13;25.48
79129;BME280;68529;43.286;23.360;2023-09-30T11:59:21;99536.50;;;30.10;24.90
79129;BME280;68529;43.286;23.360;2023-09-30T12:01:48;99538.19;;;30.02;24.42
79129;BME280;68529;43.286;23.360;2023-09-30T12:04:17;99532.44;;;29.97;23.26
79129;BME280;68529;43.286;23.360;2023-09-30T12:06:47;99523.91;;;29.68;24.91
79129;BME280;68529;43.286;23.360;2023-09-30T12:09:19;99531.03;;;29.77;24.58
79129;BME280;68529;43.286;23.360;2023-09-30T12:11:53;99521.63;;;29.81;24.37
79129;BME280;68529;43.286;23.360;2023-09-30T12:14:22;99522.28;;;29.83;24.92
79129;BME280;68529;43.286;23.360;2023-09-30T12:16:47;99522.91;;;29.77;24.82
79129;BME280;68529;43.286;23.360;2023-09-30T12:19:14;99516.50;;;29.78;24.91
79129;BME280;68529;43.286;23.360;2023-09-30T12:21:41;99507.84;;;29.75;24.67
79129;BME280;68529;43.286;23.360;2023-09-30T12:24:08;99505.66;;;29.70;24.69
79129;BME280;68529;43.286;23.360;2023-09-30T12:26:35;99506.81;;;29.68;24.68
79129;BME280;68529;43.286;23.360;2023-09-30T12:29:19;99501.91;;;29.63;25.49
79129;BME280;68529;43.286;23.360;2023-09-30T12:31:45;99498.88;;;29.66;25.21
79129;BME280;68529;43.286;23.360;2023-09-30T12:34:12;99494.97;;;29.61;24.36
79129;BME280;68529;43.286;23.360;2023-09-30T12:36:38;99493.09;;;29.45;24.76
79129;BME280;68529;43.286;23.360;2023-09-30T12:39:04;99486.50;;;29.48;24.87
79129;BME280;68529;43.286;23.360;2023-09-30T12:41:37;99489.53;;;29.44;25.00
79129;BME280;68529;43.286;23.360;2023-09-30T12:44:02;99488.16;;;29.40;24.90
79129;BME280;68529;43.286;23.360;2023-09-30T12:46:27;99478.16;;;29.25;24.21
79129;BME280;68529;43.286;23.360;2023-09-30T12:48:53;99485.38;;;29.16;24.78
79129;BME280;68529;43.286;23.360;2023-09-30T12:51:20;99485.91;;;29.20;24.66
79129;BME280;68529;43.286;23.360;2023-09-30T12:53:45;99468.97;;;29.18;24.76
79129;BME280;68529;43.286;23.360;2023-09-30T12:56:10;99469.28;;;29.15;23.94
79129;BME280;68529;43.286;23.360;2023-09-30T12:58:36;99463.53;;;29.10;24.28
79129;BME280;68529;43.286;23.360;2023-09-30T13:01:03;99463.03;;;29.06;24.08
79129;BME280;68529;43.286;23.360;2023-09-30T13:03:29;99461.34;;;29.05;25.14
79129;BME280;68529;43.286;23.360;2023-09-30T13:05:54;99459.13;;;29.01;23.88
79129;BME280;68529;43.286;23.360;2023-09-30T13:08:19;99462.66;;;29.01;25.39
79129;BME280;68529;43.286;23.360;2023-09-30T13:10:45;99457.75;;;28.97;23.85